Time;durP1;ratioP1;P1;durP2;ratioP2;P2;SDS_P1;SDS_P2;PMS_P1;PMS_P2;Temp;Humidity;BMP_temperature;BMP_pressure;BME280_temperature;BME280_humidity;BME280_pressure;Samples;Min_cycle;Max_cycle;Signal;HPM_P1;HPM_P2
2023/12/03 04:00:51;;;;;;;4.30;3.50;;;23.20;21.40;;;;;;5903343;23;46037;-86
2023/12/03 04:03:17;;;;;;;4.43;3.33;;;23.10;21.40;;;;;;4907882;28;50730;-82
2023/12/03 04:05:43;;;;;;;4.27;3.50;;;23.20;21.40;;;;;;4932214;28;45370;-82
2023/12/03 04:08:09;;;;;;;4.20;3.60;;;23.20;21.40;;;;;;4951844;28;44930;-82
2023/12/03 04:10:34;;;;;;;4.20;3.65;;;23.10;21.40;;;;;;4948012;28;45539;-82
2023/12/03 04:13:00;;;;;;;4.00;3.60;;;23.10;21.40;;;;;;4944010;28;44957;-82
2023/12/03 04:15:26;;;;;;;4.23;3.77;;;23.10;21.40;;;;;;4942161;28;45275;-83
2023/12/03 04:17:51;;;;;;;4.10;3.47;;;23.10;21.50;;;;;;4950807;28;45642;-82
2023/12/03 04:20:19;;;;;;;4.10;3.70;;;23.10;21.90;;;;;;4896519;28;47534;-82
2023/12/03 04:22:44;;;;;;;4.95;3.97;;;23.10;21.40;;;;;;4949689;28;45307;-81
2023/12/03 04:25:10;;;;;;;4.82;3.80;;;23.10;21.40;;;;;;4932190;28;46596;-82
2023/12/03 04:27:36;;;;;;;4.40;3.87;;;23.10;21.40;;;;;;4933216;28;46722;-82
2023/12/03 04:30:02;;;;;;;3.75;3.40;;;23.10;21.40;;;;;;4951902;28;47399;-82
2023/12/03 04:32:28;;;;;;;4.07;3.67;;;23.10;21.40;;;;;;4913101;28;45032;-83
2023/12/03 04:34:55;;;;;;;3.88;3.47;;;23.10;21.40;;;;;;4953556;28;45372;-83
2023/12/03 04:37:21;;;;;;;4.30;3.70;;;23.00;21.40;;;;;;4947288;28;45499;-81
2023/12/03 04:39:47;;;;;;;4.15;3.75;;;23.10;21.40;;;;;;4933108;28;46118;-83
2023/12/03 04:42:13;;;;;;;4.20;3.70;;;23.10;21.40;;;;;;4936228;28;45216;-82
2023/12/03 04:44:39;;;;;;;4.40;3.90;;;23.00;21.40;;;;;;4922626;28;46498;-83
2023/12/03 04:47:05;;;;;;;4.33;3.80;;;23.00;21.40;;;;;;4933147;28;45018;-82
2023/12/03 04:49:31;;;;;;;4.03;3.63;;;23.00;21.40;;;;;;4952286;28;46235;-82
2023/12/03 04:51:57;;;;;;;4.13;3.73;;;23.00;21.40;;;;;;4963180;28;45076;-83
2023/12/03 04:54:23;;;;;;;4.10;3.65;;;23.00;21.40;;;;;;4949847;28;45121;-82
2023/12/03 04:56:49;;;;;;;4.00;3.60;;;23.00;21.40;;;;;;4929253;28;46502;-82
2023/12/03 04:59:14;;;;;;;4.20;3.70;;;23.00;21.40;;;;;;4919971;28;46947;-81
2023/12/03 05:01:40;;;;;;;4.17;3.60;;;23.00;21.40;;;;;;4911373;28;45505;-82
2023/12/03 05:04:06;;;;;;;4.00;3.60;;;23.00;21.40;;;;;;4952478;28;45522;-82
2023/12/03 05:06:32;;;;;;;4.30;3.90;;;23.00;21.40;;;;;;4934604;28;44927;-82
2023/12/03 05:08:58;;;;;;;3.72;3.30;;;23.00;21.40;;;;;;4937141;28;46765;-83
2023/12/03 05:11:24;;;;;;;3.87;3.40;;;23.00;21.40;;;;;;4943335;28;45215;-83
2023/12/03 05:13:50;;;;;;;3.83;3.42;;;22.90;21.30;;;;;;4923762;28;45406;-83
2023/12/03 05:16:15;;;;;;;3.80;3.40;;;22.90;21.40;;;;;;4918036;28;45420;-82
2023/12/03 05:18:41;;;;;;;3.73;3.30;;;22.90;21.30;;;;;;4935588;28;46004;-83
2023/12/03 05:21:08;;;;;;;3.53;3.17;;;22.90;21.40;;;;;;4948599;28;44989;-83
2023/12/03 05:23:34;;;;;;;3.40;2.90;;;22.90;21.30;;;;;;4936199;28;45651;-83
2023/12/03 05:26:00;;;;;;;3.13;2.83;;;22.90;21.30;;;;;;4950492;28;45461;-82
2023/12/03 05:28:25;;;;;;;3.42;2.90;;;22.90;21.40;;;;;;4924506;28;46165;-83
2023/12/03 05:30:51;;;;;;;3.20;2.70;;;22.90;21.30;;;;;;4910558;28;45263;-83
2023/12/03 05:33:17;;;;;;;3.28;2.85;;;22.90;21.30;;;;;;4946182;28;46109;-82
2023/12/03 05:35:44;;;;;;;3.00;2.70;;;22.90;21.30;;;;;;4945766;28;45276;-83
2023/12/03 05:38:10;;;;;;;3.08;2.40;;;22.90;21.30;;;;;;4953644;28;46008;-83
2023/12/03 05:40:35;;;;;;;3.00;2.70;;;22.80;21.30;;;;;;4947488;28;44893;-82
2023/12/03 05:43:02;;;;;;;2.90;2.60;;;22.90;21.30;;;;;;4953076;28;45515;-83
2023/12/03 05:45:28;;;;;;;2.72;2.50;;;22.80;21.20;;;;;;4915186;28;44711;-81
2023/12/03 05:47:54;;;;;;;3.17;2.58;;;22.80;21.20;;;;;;4916515;28;46033;-82
2023/12/03 05:50:19;;;;;;;3.10;2.50;;;22.80;21.70;;;;;;4931955;28;45145;-83
2023/12/03 05:52:45;;;;;;;2.60;2.40;;;22.80;21.20;;;;;;4927536;28;45586;-82
2023/12/03 05:55:12;;;;;;;2.50;2.30;;;22.80;21.20;;;;;;4918374;28;45446;-83
2023/12/03 05:57:38;;;;;;;2.60;2.40;;;22.80;21.20;;;;;;4907917;28;47306;-82
2023/12/03 06:00:06;;;;;;;2.30;2.10;;;22.80;21.20;;;;;;4943635;28;45414;-81
2023/12/03 06:02:35;;;;;;;3.45;2.28;;;22.80;21.20;;;;;;4924298;28;45623;-83
2023/12/03 06:05:02;;;;;;;2.30;2.10;;;22.80;21.10;;;;;;4949322;28;45286;-83
2023/12/03 06:07:28;;;;;;;2.30;2.10;;;22.80;21.20;;;;;;4897545;28;47375;-83
2023/12/03 06:09:54;;;;;;;2.67;2.28;;;22.70;21.10;;;;;;4966739;28;45481;-83
2023/12/03 06:12:20;;;;;;;2.40;2.20;;;22.70;21.10;;;;;;4929362;28;46049;-82
2023/12/03 06:14:46;;;;;;;2.20;2.00;;;22.70;21.10;;;;;;4922580;28;45365;-82
2023/12/03 06:17:11;;;;;;;2.28;2.08;;;22.70;21.10;;;;;;4925184;28;46387;-83
2023/12/03 06:19:38;;;;;;;2.10;1.90;;;22.70;21.00;;;;;;4936246;28;45421;-83
2023/12/03 06:22:04;;;;;;;1.97;1.87;;;22.70;21.10;;;;;;4943937;28;46320;-82
2023/12/03 06:24:30;;;;;;;2.10;1.90;;;22.70;21.10;;;;;;4949215;28;45976;-83
2023/12/03 06:26:55;;;;;;;1.97;1.80;;;22.70;21.00;;;;;;4914746;28;46671;-83
2023/12/03 06:29:21;;;;;;;2.38;1.98;;;22.70;21.00;;;;;;4949501;28;44783;-83
2023/12/03 06:31:48;;;;;;;2.22;2.05;;;22.60;21.00;;;;;;4926863;28;45593;-83
2023/12/03 06:34:15;;;;;;;2.00;1.90;;;22.70;21.10;;;;;;4949424;28;46037;-83
2023/12/03 06:36:41;;;;;;;2.10;1.90;;;22.60;21.10;;;;;;4934264;28;46054;-83
2023/12/03 06:39:07;;;;;;;3.80;1.98;;;22.70;21.10;;;;;;4950226;28;45518;-83
2023/12/03 06:41:34;;;;;;;2.05;1.88;;;22.70;21.10;;;;;;4928990;28;45186;-81
2023/12/03 06:43:59;;;;;;;3.13;1.90;;;22.60;21.10;;;;;;4929257;28;44972;-82
2023/12/03 06:46:25;;;;;;;2.10;1.92;;;22.60;21.10;;;;;;4910797;28;46522;-82
2023/12/03 06:48:51;;;;;;;2.10;1.85;;;22.60;21.10;;;;;;4933078;28;45688;-82
2023/12/03 06:51:17;;;;;;;2.20;2.00;;;22.60;21.10;;;;;;4934430;28;45548;-83
2023/12/03 06:53:43;;;;;;;2.05;1.85;;;22.50;21.00;;;;;;4936905;28;45811;-83
2023/12/03 06:56:10;;;;;;;1.93;1.80;;;22.60;21.10;;;;;;4932417;28;46272;-82
2023/12/03 06:58:36;;;;;;;1.88;1.75;;;22.50;21.10;;;;;;4954659;28;45260;-83
2023/12/03 07:01:01;;;;;;;2.00;1.90;;;22.50;21.10;;;;;;4942935;28;45404;-82
2023/12/03 07:03:27;;;;;;;2.00;1.90;;;22.50;21.10;;;;;;4918215;28;46502;-83
2023/12/03 07:05:54;;;;;;;2.17;1.87;;;22.50;21.10;;;;;;4929706;28;47283;-83
2023/12/03 07:08:21;;;;;;;2.20;2.00;;;22.50;21.10;;;;;;4941048;28;45312;-83
2023/12/03 07:10:47;;;;;;;2.10;1.90;;;22.50;21.10;;;;;;4928484;28;45658;-82
2023/12/03 07:13:13;;;;;;;2.30;2.10;;;22.50;21.10;;;;;;4937889;28;46570;-83
2023/12/03 07:15:39;;;;;;;3.00;2.30;;;22.50;21.10;;;;;;4945451;28;46093;-82
2023/12/03 07:18:05;;;;;;;2.28;2.08;;;22.50;21.10;;;;;;4938244;28;45539;-83
2023/12/03 07:20:31;;;;;;;2.28;2.08;;;22.40;21.00;;;;;;4932398;28;45502;-82
2023/12/03 07:22:57;;;;;;;2.40;2.20;;;22.50;21.10;;;;;;4934286;28;45519;-81
2023/12/03 07:25:22;;;;;;;2.30;2.10;;;22.50;21.10;;;;;;4931968;28;45870;-83
2023/12/03 07:27:48;;;;;;;2.10;2.00;;;22.40;21.10;;;;;;4933796;28;45247;-82
2023/12/03 07:30:14;;;;;;;2.63;2.17;;;22.40;21.00;;;;;;4929315;28;44746;-83
2023/12/03 07:32:40;;;;;;;2.43;2.23;;;22.40;21.00;;;;;;4934258;28;44835;-86
2023/12/03 07:35:06;;;;;;;3.00;2.35;;;22.40;21.00;;;;;;4914670;28;46127;-80
2023/12/03 07:37:32;;;;;;;2.42;2.22;;;22.40;21.50;;;;;;4916043;28;45213;-83
2023/12/03 07:39:58;;;;;;;2.45;2.25;;;22.40;21.10;;;;;;4950559;28;45656;-83
2023/12/03 07:42:27;;;;;;;2.40;2.20;;;22.40;21.10;;;;;;4930565;28;45337;-83
2023/12/03 07:44:53;;;;;;;2.28;2.08;;;22.30;21.00;;;;;;4953596;28;46401;-83
2023/12/03 07:47:19;;;;;;;2.33;2.13;;;22.30;21.00;;;;;;4912731;28;45691;-83
2023/12/03 07:49:45;;;;;;;2.33;2.13;;;22.30;21.10;;;;;;4950900;28;44930;-83
2023/12/03 07:52:11;;;;;;;2.30;2.10;;;22.30;21.10;;;;;;4947112;28;45036;-83
2023/12/03 07:54:37;;;;;;;2.13;2.00;;;22.40;21.10;;;;;;4919654;28;47104;-82
2023/12/03 07:57:03;;;;;;;2.90;2.40;;;22.30;21.10;;;;;;4946634;28;45511;-83
2023/12/03 07:59:29;;;;;;;2.60;2.35;;;22.30;21.10;;;;;;4950560;28;44977;-82
2023/12/03 08:01:55;;;;;;;2.30;2.10;;;22.30;21.10;;;;;;4941189;28;45533;-83
2023/12/03 08:04:21;;;;;;;2.40;2.20;;;22.30;21.10;;;;;;4934623;28;46954;-83
2023/12/03 08:06:46;;;;;;;2.60;2.40;;;22.30;21.10;;;;;;4946644;28;45689;-82
2023/12/03 08:09:12;;;;;;;2.60;2.40;;;22.30;21.10;;;;;;4921217;28;45237;-83
2023/12/03 08:11:37;;;;;;;2.50;2.30;;;22.30;21.10;;;;;;4915209;28;45637;-83
2023/12/03 08:14:03;;;;;;;2.30;2.10;;;22.30;21.20;;;;;;4922515;28;46140;-84
2023/12/03 08:16:29;;;;;;;2.50;2.30;;;22.20;21.20;;;;;;4907241;28;45714;-83
2023/12/03 08:18:54;;;;;;;2.53;2.33;;;22.20;21.20;;;;;;4917829;28;45761;-82
2023/12/03 08:21:20;;;;;;;2.50;2.30;;;22.20;21.20;;;;;;4931670;28;45886;-83
2023/12/03 08:23:46;;;;;;;2.78;2.58;;;22.20;21.20;;;;;;4931319;28;46223;-83
2023/12/03 08:26:11;;;;;;;2.60;2.40;;;22.30;21.20;;;;;;4932107;28;45316;-83
2023/12/03 08:28:37;;;;;;;2.60;2.40;;;22.20;21.20;;;;;;4955478;28;45420;-83
2023/12/03 08:31:03;;;;;;;2.27;2.07;;;22.20;21.20;;;;;;4945316;28;45252;-83
2023/12/03 08:33:29;;;;;;;2.42;2.22;;;22.20;21.30;;;;;;4932645;28;46302;-82
2023/12/03 08:35:56;;;;;;;2.70;2.50;;;22.20;21.20;;;;;;4929812;28;45273;-83
2023/12/03 08:38:22;;;;;;;2.70;2.50;;;22.20;21.30;;;;;;4935167;28;45556;-83
2023/12/03 08:40:48;;;;;;;2.77;2.57;;;22.20;21.50;;;;;;4929337;28;45632;-83
2023/12/03 08:43:15;;;;;;;2.73;2.50;;;22.20;21.30;;;;;;4952235;28;45660;-83
2023/12/03 08:45:41;;;;;;;2.60;2.40;;;22.20;21.30;;;;;;4925933;28;45715;-83
2023/12/03 08:48:07;;;;;;;3.90;2.97;;;22.10;21.20;;;;;;4921803;28;45937;-81
2023/12/03 08:50:33;;;;;;;2.50;2.30;;;22.10;21.20;;;;;;4937534;28;45028;-83
2023/12/03 08:53:00;;;;;;;2.80;2.60;;;22.10;21.20;;;;;;4966313;28;46706;-82
2023/12/03 08:55:26;;;;;;;3.10;2.80;;;22.10;21.20;;;;;;4929409;28;45203;-83
2023/12/03 08:57:53;;;;;;;3.05;2.75;;;22.10;21.30;;;;;;4947974;28;45638;-83
2023/12/03 09:00:19;;;;;;;2.90;2.60;;;22.10;21.30;;;;;;4924231;28;45413;-82
2023/12/03 09:02:45;;;;;;;2.80;2.60;;;22.10;21.30;;;;;;4927153;28;46110;-82
2023/12/03 09:05:11;;;;;;;3.13;2.83;;;22.00;21.30;;;;;;4911410;28;45430;-83
2023/12/03 09:07:37;;;;;;;3.33;2.78;;;22.00;21.30;;;;;;4942233;28;45039;-81
2023/12/03 09:10:03;;;;;;;3.03;2.73;;;22.10;21.30;;;;;;4950921;28;45872;-81
2023/12/03 09:12:29;;;;;;;3.42;3.13;;;22.00;21.30;;;;;;4942075;28;47212;-82
2023/12/03 09:14:54;;;;;;;3.13;2.83;;;22.00;21.30;;;;;;4916656;28;44903;-81
2023/12/03 09:17:21;;;;;;;3.50;3.20;;;22.00;21.60;;;;;;4916477;28;45821;-82
2023/12/03 09:19:47;;;;;;;3.10;2.80;;;22.00;21.30;;;;;;4936367;28;45362;-82
2023/12/03 09:22:12;;;;;;;3.35;3.05;;;22.00;21.30;;;;;;4943677;28;45548;-83
2023/12/03 09:24:38;;;;;;;3.50;3.20;;;22.00;21.30;;;;;;4949189;28;45390;-83
2023/12/03 09:27:05;;;;;;;4.33;3.10;;;22.00;21.30;;;;;;4944092;28;45215;-83
2023/12/03 09:29:31;;;;;;;3.40;3.07;;;21.90;21.30;;;;;;4947428;28;44842;-82
2023/12/03 09:31:57;;;;;;;3.40;3.10;;;21.90;21.30;;;;;;4913522;28;46206;-83
2023/12/03 09:34:23;;;;;;;3.85;2.92;;;22.00;21.40;;;;;;4935963;28;45739;-83
2023/12/03 09:36:49;;;;;;;3.53;3.23;;;21.90;21.30;;;;;;4929046;28;47327;-81
2023/12/03 09:39:15;;;;;;;3.47;3.17;;;21.90;21.40;;;;;;4950250;28;45697;-82
2023/12/03 09:41:51;;;;;;;3.33;3.03;;;21.90;21.40;;;;;;4933471;28;46575;-82
2023/12/03 09:44:42;;;;;;;3.75;3.38;;;21.90;21.40;;;;;;4935027;28;45235;-83
2023/12/03 09:47:10;;;;;;;3.50;3.20;;;21.90;21.40;;;;;;4925306;28;45431;-83
2023/12/03 09:49:38;;;;;;;3.40;3.10;;;21.90;21.40;;;;;;4936013;28;45595;-83
2023/12/03 09:52:03;;;;;;;4.05;3.30;;;21.90;21.40;;;;;;4917233;28;45273;-83
2023/12/03 09:54:29;;;;;;;3.40;2.93;;;21.90;21.50;;;;;;4936857;28;45383;-82
2023/12/03 09:56:57;;;;;;;3.80;3.50;;;21.90;21.50;;;;;;4929293;28;45268;-83
2023/12/03 09:59:23;;;;;;;3.40;3.10;;;21.90;21.50;;;;;;4948681;28;45660;-83
2023/12/03 10:01:48;;;;;;;4.18;3.47;;;21.90;21.50;;;;;;4908184;28;46196;-82
2023/12/03 10:04:14;;;;;;;3.80;3.40;;;21.90;21.50;;;;;;4933359;28;45700;-83
2023/12/03 10:06:44;;;;;;;3.60;3.30;;;21.90;21.50;;;;;;4926054;28;45637;-82
2023/12/03 10:09:11;;;;;;;3.80;3.50;;;21.80;21.50;;;;;;4963332;28;45487;-82
2023/12/03 10:11:42;;;;;;;3.65;3.35;;;21.80;21.50;;;;;;4913508;28;46188;-82
2023/12/03 10:14:09;;;;;;;4.05;3.65;;;21.80;21.50;;;;;;4952520;28;44843;-81
2023/12/03 10:16:35;;;;;;;4.10;3.70;;;21.80;21.50;;;;;;4912016;28;45385;-82
2023/12/03 10:19:00;;;;;;;4.20;3.80;;;21.80;21.50;;;;;;4947197;28;45552;-81
2023/12/03 10:21:27;;;;;;;3.90;3.60;;;21.80;21.50;;;;;;4924246;28;47081;-83
2023/12/03 10:24:19;;;;;;;4.20;3.80;;;21.80;21.50;;;;;;4925298;28;45362;-82
2023/12/03 10:26:52;;;;;;;4.60;3.90;;;21.80;21.50;;;;;;4947144;28;45762;-81
2023/12/03 10:29:23;;;;;;;4.50;4.10;;;21.80;21.50;;;;;;4936581;28;45141;-82
2023/12/03 10:31:49;;;;;;;4.47;4.07;;;21.80;21.50;;;;;;4944353;28;46386;-81
2023/12/03 10:34:16;;;;;;;5.27;4.77;;;21.80;21.50;;;;;;4952016;28;45357;-81
2023/12/03 10:36:42;;;;;;;5.13;4.60;;;21.80;21.50;;;;;;4929761;28;45664;-82
2023/12/03 10:39:08;;;;;;;5.50;5.00;;;21.70;21.50;;;;;;4952351;28;45852;-81
2023/12/03 10:41:34;;;;;;;5.83;5.33;;;21.70;21.50;;;;;;4917784;28;46194;-82
2023/12/03 10:44:00;;;;;;;5.97;5.30;;;21.70;21.60;;;;;;4952781;28;45112;-82
2023/12/03 10:46:27;;;;;;;6.30;5.47;;;21.70;21.60;;;;;;4947695;28;45500;-82
2023/12/03 10:48:52;;;;;;;5.53;5.03;;;21.70;21.60;;;;;;4949390;28;46069;-81
2023/12/03 10:51:18;;;;;;;5.38;4.88;;;21.70;21.60;;;;;;4919434;28;46387;-82
2023/12/03 10:53:44;;;;;;;5.80;5.20;;;21.70;21.60;;;;;;4949921;28;47299;-82
2023/12/03 10:56:09;;;;;;;5.60;5.00;;;21.70;21.60;;;;;;4949075;28;45013;-82
2023/12/03 10:58:39;;;;;;;5.43;4.93;;;21.70;21.70;;;;;;4923186;28;45585;-81
2023/12/03 11:01:21;;;;;;;5.95;5.35;;;21.70;21.70;;;;;;4931304;28;46810;-82
2023/12/03 11:03:55;;;;;;;6.10;5.20;;;21.70;21.70;;;;;;4952149;28;45774;-83
2023/12/03 11:06:24;;;;;;;6.03;5.43;;;21.60;21.70;;;;;;4966382;28;46052;-82
2023/12/03 11:08:53;;;;;;;5.68;5.10;;;21.60;21.70;;;;;;4951086;28;45393;-82
2023/12/03 11:11:20;;;;;;;5.38;4.88;;;21.60;21.70;;;;;;4948274;28;46395;-82
2023/12/03 11:14:17;;;;;;;5.20;4.70;;;21.60;21.70;;;;;;4937016;28;45141;-83
2023/12/03 11:16:53;;;;;;;5.38;4.88;;;21.60;21.70;;;;;;4925144;28;45494;-82
2023/12/03 11:19:19;;;;;;;5.28;4.78;;;21.60;21.70;;;;;;4919851;28;45275;-82
2023/12/03 11:21:58;;;;;;;5.30;4.80;;;21.60;21.70;;;;;;4947630;28;45740;-82
2023/12/03 11:24:36;;;;;;;5.20;4.70;;;21.60;21.80;;;;;;4954671;28;45597;-83
2023/12/03 11:27:02;;;;;;;5.25;4.75;;;21.60;21.80;;;;;;4950117;28;45501;-82
2023/12/03 11:29:48;;;;;;;5.60;5.10;;;21.60;21.80;;;;;;4938953;28;45705;-82
2023/12/03 11:32:15;;;;;;;5.13;4.63;;;21.60;21.80;;;;;;4926895;28;45975;-82
2023/12/03 11:34:41;;;;;;;4.90;4.50;;;21.60;21.80;;;;;;4952363;28;45456;-82
2023/12/03 11:37:11;;;;;;;4.50;4.10;;;21.60;21.80;;;;;;4932410;28;46074;-82
2023/12/03 11:39:42;;;;;;;5.22;4.72;;;21.60;21.80;;;;;;4925382;28;45512;-82
2023/12/03 11:42:09;;;;;;;5.10;4.60;;;21.60;21.90;;;;;;4948553;28;46092;-82
2023/12/03 11:44:35;;;;;;;4.85;4.35;;;21.60;21.90;;;;;;4937678;28;45405;-82
2023/12/03 11:47:08;;;;;;;4.90;4.50;;;21.60;22.40;;;;;;4941498;28;45675;-82
2023/12/03 11:49:38;;;;;;;5.03;4.53;;;21.50;21.80;;;;;;4937297;28;44862;-81
2023/12/03 11:52:04;;;;;;;4.80;4.30;;;21.50;21.90;;;;;;4960331;28;44854;-81
2023/12/03 11:54:50;;;;;;;4.40;4.00;;;21.60;21.90;;;;;;4908917;28;45336;-82
2023/12/03 11:57:16;;;;;;;4.72;4.32;;;21.50;21.90;;;;;;4948680;28;45284;-82
2023/12/03 11:59:44;;;;;;;4.50;4.10;;;21.50;21.90;;;;;;4925359;28;45366;-82
2023/12/03 12:02:11;;;;;;;5.43;4.37;;;21.50;22.00;;;;;;4941264;28;45881;-82
2023/12/03 12:04:36;;;;;;;4.93;4.43;;;21.50;21.90;;;;;;4938336;28;45850;-82
2023/12/03 12:07:18;;;;;;;4.87;4.43;;;21.40;21.90;;;;;;4915141;28;45790;-82
2023/12/03 12:09:48;;;;;;;4.75;4.35;;;21.50;21.90;;;;;;4950988;28;45066;-82
2023/12/03 12:12:17;;;;;;;4.55;4.15;;;21.50;22.40;;;;;;4931680;28;45216;-82
2023/12/03 12:14:45;;;;;;;4.45;4.05;;;21.50;22.00;;;;;;4922692;28;44989;-82
2023/12/03 12:17:11;;;;;;;4.90;3.97;;;21.50;22.00;;;;;;4902832;28;45372;-82
2023/12/03 12:19:48;;;;;;;4.80;4.40;;;21.50;22.00;;;;;;4922665;28;46746;-81
2023/12/03 12:22:14;;;;;;;4.85;4.30;;;21.50;22.00;;;;;;4931597;28;47603;-82
2023/12/03 12:24:40;;;;;;;4.75;4.35;;;21.50;22.00;;;;;;4924235;28;45551;-82
2023/12/03 12:27:06;;;;;;;4.30;3.90;;;21.40;22.00;;;;;;4945515;28;45270;-82
2023/12/03 12:29:32;;;;;;;4.32;3.92;;;21.50;22.30;;;;;;4969381;28;46381;-82
2023/12/03 12:31:59;;;;;;;4.40;4.00;;;21.50;22.00;;;;;;4962186;28;45500;-82
2023/12/03 12:34:25;;;;;;;3.97;3.60;;;21.50;22.10;;;;;;4937858;28;45482;-81
2023/12/03 12:37:04;;;;;;;4.85;4.30;;;21.40;22.00;;;;;;4943924;28;45308;-82
2023/12/03 12:39:30;;;;;;;4.57;4.17;;;21.40;22.10;;;;;;4931710;28;45623;-82
2023/12/03 12:41:59;;;;;;;4.25;3.85;;;21.40;22.00;;;;;;4931526;28;46329;-82
2023/12/03 12:44:39;;;;;;;4.70;4.20;;;21.50;22.10;;;;;;4957819;28;44865;-82
2023/12/03 12:47:04;;;;;;;5.18;4.68;;;21.40;22.10;;;;;;4924055;28;46193;-82
2023/12/03 12:49:30;;;;;;;5.30;4.80;;;21.40;22.10;;;;;;4925041;28;45448;-82
2023/12/03 12:52:13;;;;;;;5.70;4.90;;;21.40;22.10;;;;;;4966992;28;45525;-82
2023/12/03 12:54:49;;;;;;;5.50;5.00;;;21.30;22.20;;;;;;4933517;28;45292;-81
2023/12/03 12:57:15;;;;;;;5.38;4.80;;;21.40;22.20;;;;;;4914913;28;45236;-81
2023/12/03 12:59:41;;;;;;;5.70;5.00;;;21.30;22.20;;;;;;4968748;28;45535;-82
2023/12/03 13:02:07;;;;;;;5.20;4.70;;;21.30;22.20;;;;;;4925687;28;46209;-82
2023/12/03 13:04:34;;;;;;;5.03;4.53;;;21.30;22.20;;;;;;4939547;28;44673;-82
2023/12/03 13:07:02;;;;;;;8.57;4.80;;;21.30;22.20;;;;;;4902262;28;45281;-82
2023/12/03 13:09:28;;;;;;;4.85;4.35;;;21.30;22.30;;;;;;4948556;28;45401;-81
2023/12/03 13:11:53;;;;;;;5.32;4.30;;;21.40;22.30;;;;;;4927263;28;45984;-82
2023/12/03 13:14:20;;;;;;;5.37;4.87;;;21.30;22.30;;;;;;4923660;28;46652;-81
2023/12/03 13:16:45;;;;;;;5.13;4.53;;;21.30;22.30;;;;;;4917494;28;45173;-81
2023/12/03 13:19:11;;;;;;;4.90;4.40;;;21.30;22.30;;;;;;4937694;28;45306;-81
2023/12/03 13:21:37;;;;;;;5.38;4.30;;;21.30;22.30;;;;;;4950218;28;46211;-82
2023/12/03 13:24:03;;;;;;;5.63;4.70;;;21.30;22.30;;;;;;4935961;28;44678;-82
2023/12/03 13:26:29;;;;;;;7.00;4.70;;;21.30;21.90;;;;;;4935010;28;44913;-82
2023/12/03 13:28:54;;;;;;;5.63;4.55;;;21.40;22.40;;;;;;4937471;28;45482;-82
2023/12/03 13:31:20;;;;;;;5.30;4.80;;;21.30;22.40;;;;;;4927288;28;47481;-82
2023/12/03 13:33:46;;;;;;;4.63;4.22;;;21.40;22.50;;;;;;4950966;28;45169;-82
2023/12/03 13:36:13;;;;;;;5.28;4.63;;;21.40;22.40;;;;;;4965497;28;44712;-82
2023/12/03 13:38:40;;;;;;;4.78;4.38;;;21.40;22.50;;;;;;4967511;28;45420;-82
2023/12/03 13:41:07;;;;;;;5.15;4.65;;;21.40;22.50;;;;;;4952882;28;45917;-81
2023/12/03 13:43:33;;;;;;;5.00;4.50;;;21.40;22.80;;;;;;4956028;28;45703;-82
2023/12/03 13:45:59;;;;;;;5.10;4.60;;;21.40;22.50;;;;;;4938751;28;45250;-81
2023/12/03 13:48:25;;;;;;;5.20;4.70;;;21.40;22.50;;;;;;4942392;28;44814;-81
2023/12/03 13:50:50;;;;;;;4.90;4.40;;;21.40;22.50;;;;;;4942030;28;45798;-82
2023/12/03 13:53:17;;;;;;;4.63;4.03;;;21.40;22.50;;;;;;4937789;28;45590;-82
2023/12/03 13:55:42;;;;;;;4.97;4.25;;;21.40;23.00;;;;;;4947631;28;45107;-80
2023/12/03 13:58:08;;;;;;;4.80;4.30;;;21.50;22.50;;;;;;4933019;28;45357;-82
2023/12/03 14:00:34;;;;;;;4.45;4.05;;;21.50;22.50;;;;;;4927338;28;48299;-82
2023/12/03 14:03:01;;;;;;;4.87;4.30;;;21.50;22.50;;;;;;4963836;28;45417;-82
2023/12/03 14:05:27;;;;;;;5.95;4.22;;;21.50;22.50;;;;;;4944342;28;45207;-81
2023/12/03 14:07:52;;;;;;;5.10;4.28;;;21.50;22.50;;;;;;4919350;28;44790;-82
2023/12/03 14:10:18;;;;;;;5.25;4.65;;;21.60;22.50;;;;;;4917045;28;46412;-82
2023/12/03 14:12:44;;;;;;;4.63;4.10;;;21.60;22.50;;;;;;4923742;28;45565;-82
2023/12/03 14:15:10;;;;;;;5.32;4.35;;;21.60;22.50;;;;;;4930697;28;46047;-83
2023/12/03 14:17:36;;;;;;;4.95;4.28;;;21.60;22.50;;;;;;4964023;28;45107;-80
2023/12/03 14:20:05;;;;;;;5.35;4.60;;;21.60;22.50;;;;;;4938033;28;47232;-80
2023/12/03 14:22:31;;;;;;;4.90;4.40;;;21.60;22.50;;;;;;4943994;28;45100;-81
2023/12/03 14:24:57;;;;;;;4.93;4.30;;;21.70;22.60;;;;;;4937207;28;44904;-81
2023/12/03 14:27:24;;;;;;;4.80;4.13;;;21.70;22.60;;;;;;4943730;28;45324;-81
2023/12/03 14:29:50;;;;;;;4.65;4.15;;;21.70;22.60;;;;;;4940795;28;45405;-81
2023/12/03 14:32:16;;;;;;;4.60;4.05;;;21.70;22.60;;;;;;4967182;28;45044;-80
2023/12/03 14:34:42;;;;;;;4.20;3.80;;;21.70;22.50;;;;;;4951760;28;45352;-82
2023/12/03 14:37:07;;;;;;;4.38;3.97;;;21.70;22.50;;;;;;4948660;28;45589;-82
2023/12/03 14:39:33;;;;;;;5.50;4.33;;;21.80;22.60;;;;;;4936961;28;45552;-82
2023/12/03 14:41:59;;;;;;;5.10;4.10;;;21.80;22.60;;;;;;4923065;28;45260;-80
2023/12/03 14:44:25;;;;;;;4.40;3.73;;;21.80;22.60;;;;;;4933795;28;45297;-82
2023/12/03 14:46:52;;;;;;;5.47;4.18;;;21.90;22.60;;;;;;4934641;28;45277;-81
2023/12/03 14:49:18;;;;;;;4.65;4.25;;;21.90;22.50;;;;;;4936249;28;46317;-81
2023/12/03 14:51:45;;;;;;;5.40;4.10;;;21.90;22.50;;;;;;4933179;28;45049;-81
2023/12/03 14:54:10;;;;;;;4.93;4.43;;;21.90;22.50;;;;;;4949220;28;45271;-81
2023/12/03 14:56:36;;;;;;;4.88;4.38;;;21.90;22.50;;;;;;4931750;28;45458;-82
2023/12/03 14:59:05;;;;;;;4.80;4.10;;;22.00;22.50;;;;;;4916501;28;47129;-82
2023/12/03 15:01:32;;;;;;;5.10;4.40;;;21.90;22.50;;;;;;4938416;28;45392;-82
2023/12/03 15:03:58;;;;;;;4.63;4.03;;;22.00;22.50;;;;;;4903534;28;45873;-82
2023/12/03 15:06:24;;;;;;;5.00;4.10;;;21.90;22.40;;;;;;4930824;28;45068;-81
2023/12/03 15:08:50;;;;;;;5.30;4.22;;;22.10;22.50;;;;;;4918332;28;46001;-81
2023/12/03 15:11:16;;;;;;;5.17;4.07;;;22.00;22.40;;;;;;4916710;28;46115;-82
2023/12/03 15:13:42;;;;;;;5.13;4.63;;;22.10;22.40;;;;;;4925968;28;45551;-82
2023/12/03 15:16:10;;;;;;;4.70;4.23;;;22.10;22.40;;;;;;4926026;28;45064;-82
2023/12/03 15:18:36;;;;;;;5.30;4.30;;;22.10;22.30;;;;;;4937360;28;46456;-82
2023/12/03 15:21:02;;;;;;;5.50;5.00;;;22.10;22.30;;;;;;4950014;28;44916;-80
2023/12/03 15:23:29;;;;;;;5.30;4.70;;;22.10;22.30;;;;;;4936350;28;45453;-81
2023/12/03 15:25:55;;;;;;;5.47;4.93;;;22.20;22.30;;;;;;4948789;28;45419;-81
2023/12/03 15:28:21;;;;;;;5.65;5.15;;;22.20;22.20;;;;;;4970650;28;46583;-82
2023/12/03 15:30:47;;;;;;;6.50;5.00;;;22.20;22.20;;;;;;4914491;28;44827;-81
2023/12/03 15:33:13;;;;;;;6.40;5.37;;;22.20;22.20;;;;;;4922618;28;45136;-82
2023/12/03 15:35:39;;;;;;;5.72;5.13;;;22.20;22.10;;;;;;4946544;28;45575;-81
2023/12/03 15:38:05;;;;;;;5.83;5.23;;;22.30;22.10;;;;;;4951742;28;47508;-81
2023/12/03 15:40:31;;;;;;;5.45;4.78;;;22.30;22.10;;;;;;4901155;28;45469;-82
2023/12/03 15:42:57;;;;;;;5.60;4.93;;;22.30;22.00;;;;;;4939762;28;44967;-81
2023/12/03 15:45:23;;;;;;;5.80;5.10;;;22.30;22.00;;;;;;4925623;28;45403;-82
2023/12/03 15:47:50;;;;;;;6.68;5.00;;;22.30;22.00;;;;;;4937658;28;46215;-81
2023/12/03 15:50:20;;;;;;;6.18;5.00;;;22.30;21.90;;;;;;4949511;28;45482;-81
2023/12/03 15:52:46;;;;;;;5.57;5.07;;;22.40;21.90;;;;;;4935493;28;45308;-81
2023/12/03 15:55:12;;;;;;;5.97;5.30;;;22.40;21.80;;;;;;4919766;28;44834;-81
2023/12/03 15:57:37;;;;;;;5.97;5.13;;;22.40;21.80;;;;;;4918016;28;47452;-81
2023/12/03 16:00:09;;;;;;;5.78;4.90;;;22.50;21.80;;;;;;4906429;28;44986;-80
2023/12/03 16:02:36;;;;;;;5.67;5.07;;;22.50;21.80;;;;;;4922380;28;45091;-81
2023/12/03 16:05:02;;;;;;;5.88;5.18;;;22.60;21.70;;;;;;4932591;28;45308;-82
2023/12/03 16:07:28;;;;;;;5.03;4.53;;;22.60;21.80;;;;;;4915408;28;46987;-82
2023/12/03 16:09:55;;;;;;;7.32;5.00;;;22.60;21.70;;;;;;4935690;28;45251;-81
2023/12/03 16:12:21;;;;;;;5.95;5.30;;;22.70;21.70;;;;;;4900681;28;45154;-81
2023/12/03 16:14:46;;;;;;;5.07;4.57;;;22.70;21.60;;;;;;4920392;28;45565;-81
2023/12/03 16:17:12;;;;;;;5.32;4.82;;;22.70;21.60;;;;;;4922943;28;45465;-80
2023/12/03 16:19:38;;;;;;;5.47;4.78;;;22.70;21.60;;;;;;4906397;28;45607;-80
2023/12/03 16:22:04;;;;;;;5.00;4.55;;;22.80;21.60;;;;;;4910187;28;45327;-82
2023/12/03 16:24:30;;;;;;;5.78;5.10;;;22.80;21.50;;;;;;4901864;28;45242;-81
2023/12/03 16:26:56;;;;;;;4.93;4.50;;;22.80;21.50;;;;;;4898870;28;46882;-81
2023/12/03 16:29:21;;;;;;;5.43;4.93;;;22.90;21.50;;;;;;4934765;28;45402;-82
2023/12/03 16:31:47;;;;;;;5.28;4.78;;;22.80;21.40;;;;;;4885439;28;45805;-82
2023/12/03 16:34:13;;;;;;;5.60;5.00;;;22.90;21.40;;;;;;4905285;28;45843;-81
2023/12/03 16:36:39;;;;;;;6.13;4.95;;;22.90;21.40;;;;;;4932214;28;46308;-82
2023/12/03 16:39:07;;;;;;;6.32;4.88;;;22.90;21.40;;;;;;4916092;28;45913;-83
2023/12/03 16:41:32;;;;;;;5.90;5.30;;;23.00;21.40;;;;;;4917196;28;45504;-82
2023/12/03 16:43:58;;;;;;;5.10;4.60;;;23.00;21.30;;;;;;4918077;28;44677;-82
2023/12/03 16:46:25;;;;;;;5.45;4.80;;;23.00;21.30;;;;;;4924811;28;46254;-81